createdAt,value
2018-03-22T00:00:08.828Z,1017.21
2018-03-22T00:01:09.238Z,1017.16
2018-03-22T00:02:09.658Z,1017.19
2018-03-22T00:03:10.087Z,1017.15
2018-03-22T00:04:10.502Z,1017.11
2018-03-22T00:05:10.915Z,1017.12
2018-03-22T00:06:11.345Z,1017.14
2018-03-22T00:07:11.762Z,1017.11
2018-03-22T00:08:12.186Z,1017.14
2018-03-22T00:09:12.606Z,1017.09
2018-03-22T00:10:13.030Z,1017.16
2018-03-22T00:11:13.455Z,1017.14
2018-03-22T00:12:13.871Z,1017.17
2018-03-22T00:13:14.289Z,1017.15
2018-03-22T00:14:14.736Z,1017.10
2018-03-22T00:15:15.138Z,1017.13
2018-03-22T00:16:15.559Z,1017.13
2018-03-22T00:17:15.978Z,1017.10
2018-03-22T00:18:16.402Z,1017.11
2018-03-22T00:19:16.825Z,1017.08
2018-03-22T00:20:17.242Z,1017.06
2018-03-22T00:21:17.668Z,1017.03
2018-03-22T00:22:18.091Z,1017.02
2018-03-22T00:23:18.521Z,1016.99
2018-03-22T00:24:18.932Z,1016.93
2018-03-22T00:25:19.350Z,1016.93
2018-03-22T00:26:19.771Z,1016.93
2018-03-22T00:27:20.200Z,1016.88
2018-03-22T00:28:20.617Z,1016.90
2018-03-22T00:29:21.036Z,1016.90
2018-03-22T00:30:21.472Z,1016.93
2018-03-22T00:31:21.879Z,1016.81
2018-03-22T00:32:22.302Z,1016.84
2018-03-22T00:33:22.721Z,1016.75
2018-03-22T00:34:23.144Z,1016.76
2018-03-22T00:35:23.568Z,1016.78
2018-03-22T00:36:23.986Z,1016.71
2018-03-22T00:37:24.404Z,1016.76
2018-03-22T00:38:24.840Z,1016.71
2018-03-22T00:39:25.258Z,1016.64
2018-03-22T00:40:25.685Z,1016.63
2018-03-22T00:41:26.090Z,1016.68
2018-03-22T00:42:26.515Z,1016.58
2018-03-22T00:43:26.931Z,1016.65
2018-03-22T00:44:27.357Z,1016.58
2018-03-22T00:45:27.788Z,1016.61
2018-03-22T00:46:28.208Z,1016.56
2018-03-22T00:47:28.625Z,1016.51
2018-03-22T00:48:29.042Z,1016.46
2018-03-22T00:49:29.460Z,1016.44
2018-03-22T00:50:29.886Z,1016.45
2018-03-22T00:51:30.314Z,1016.41
2018-03-22T00:52:30.730Z,1016.43
2018-03-22T00:53:31.148Z,1016.42
2018-03-22T00:54:31.574Z,1016.39
2018-03-22T00:55:31.990Z,1016.35
2018-03-22T00:56:32.413Z,1016.41
2018-03-22T00:57:32.834Z,1016.41
2018-03-22T00:58:33.257Z,1016.35
2018-03-22T00:59:33.683Z,1016.31
2018-03-22T01:00:34.096Z,1016.34
2018-03-22T01:01:34.523Z,1016.37
2018-03-22T01:02:34.949Z,1016.33
2018-03-22T01:03:35.368Z,1016.28
2018-03-22T01:04:35.780Z,1016.27
2018-03-22T01:05:36.204Z,1016.28
2018-03-22T01:06:36.637Z,1016.25
2018-03-22T01:07:37.054Z,1016.28
2018-03-22T01:08:37.482Z,1016.27
2018-03-22T01:09:37.892Z,1016.22
2018-03-22T01:10:38.363Z,1016.23
2018-03-22T01:11:38.734Z,1016.24
2018-03-22T01:12:39.162Z,1016.22
2018-03-22T01:13:39.575Z,1016.20
2018-03-22T01:14:39.995Z,1016.15
2018-03-22T01:15:40.426Z,1016.12
2018-03-22T01:16:40.843Z,1016.09
2018-03-22T01:17:41.263Z,1016.13
2018-03-22T01:18:41.699Z,1016.12
2018-03-22T01:19:42.116Z,1016.10
2018-03-22T01:20:42.529Z,1016.06
2018-03-22T01:21:42.949Z,1016.05
2018-03-22T01:22:43.374Z,1015.97
2018-03-22T01:23:43.792Z,1015.92
2018-03-22T01:24:44.211Z,1015.90
2018-03-22T01:25:44.639Z,1015.97
2018-03-22T01:26:45.062Z,1015.89
2018-03-22T01:27:45.480Z,1015.91
2018-03-22T01:28:45.895Z,1015.91
2018-03-22T01:29:46.324Z,1015.87
2018-03-22T01:30:46.739Z,1015.85
2018-03-22T01:31:47.165Z,1015.85
2018-03-22T01:32:47.591Z,1015.85
2018-03-22T01:33:48.007Z,1015.83
2018-03-22T01:34:48.426Z,1015.83
2018-03-22T01:35:48.849Z,1015.79
2018-03-22T01:36:49.270Z,1015.76
2018-03-22T01:37:49.693Z,1015.71
2018-03-22T01:38:50.116Z,1015.69
2018-03-22T01:39:50.535Z,1015.68
2018-03-22T01:40:50.958Z,1015.67
2018-03-22T01:41:51.371Z,1015.65
2018-03-22T01:42:51.794Z,1015.60
2018-03-22T01:43:52.233Z,1015.60
2018-03-22T01:44:52.635Z,1015.60
2018-03-22T01:45:53.057Z,1015.53
2018-03-22T01:46:53.479Z,1015.52
2018-03-22T01:47:53.896Z,1015.47
2018-03-22T01:48:54.322Z,1015.47
2018-03-22T01:49:54.739Z,1015.52
2018-03-22T01:50:55.179Z,1015.46
2018-03-22T01:51:55.583Z,1015.43
2018-03-22T01:52:55.999Z,1015.39
2018-03-22T01:53:56.432Z,1015.40
2018-03-22T01:54:56.854Z,1015.37
2018-03-22T01:55:57.268Z,1015.38
2018-03-22T01:56:57.686Z,1015.30
2018-03-22T01:57:58.111Z,1015.31
2018-03-22T01:58:58.559Z,1015.28
2018-03-22T01:59:58.949Z,1015.26
2018-03-22T02:00:59.375Z,1015.21
2018-03-22T02:01:59.796Z,1015.16
2018-03-22T02:03:00.215Z,1015.16
2018-03-22T02:04:00.633Z,1015.14
2018-03-22T02:05:01.052Z,1015.12
2018-03-22T02:06:01.476Z,1015.13
2018-03-22T02:07:01.905Z,1015.10
2018-03-22T02:08:02.315Z,1015.06
2018-03-22T02:09:02.737Z,1015.06
2018-03-22T02:10:03.226Z,1015.03
2018-03-22T02:11:03.578Z,1014.99
2018-03-22T02:12:04.003Z,1014.96
2018-03-22T02:13:04.418Z,1014.97
2018-03-22T02:14:04.838Z,1014.92
2018-03-22T02:15:05.262Z,1014.89
2018-03-22T02:16:05.683Z,1014.85
2018-03-22T02:17:06.101Z,1014.81
2018-03-22T02:18:06.528Z,1014.79
2018-03-22T02:19:06.962Z,1014.78
2018-03-22T02:20:07.369Z,1014.78
2018-03-22T02:21:07.784Z,1014.75
2018-03-22T02:22:08.207Z,1014.74
2018-03-22T02:23:08.638Z,1014.71
2018-03-22T02:24:09.049Z,1014.70
2018-03-22T02:25:09.469Z,1014.68
2018-03-22T02:26:09.889Z,1014.68
2018-03-22T02:27:10.315Z,1014.68
2018-03-22T02:28:10.735Z,1014.64
2018-03-22T02:29:11.160Z,1014.64
2018-03-22T02:30:11.572Z,1014.61
2018-03-22T02:31:11.997Z,1014.60
2018-03-22T02:32:12.417Z,1014.58
2018-03-22T02:33:12.844Z,1014.56
2018-03-22T02:34:13.264Z,1014.54
2018-03-22T02:35:13.674Z,1014.50
2018-03-22T02:36:14.100Z,1014.49
2018-03-22T02:37:14.519Z,1014.49
2018-03-22T02:38:14.946Z,1014.47
2018-03-22T02:39:15.355Z,1014.46
2018-03-22T02:40:15.787Z,1014.43
2018-03-22T02:41:16.207Z,1014.43
2018-03-22T02:42:16.622Z,1014.39
2018-03-22T02:43:17.043Z,1014.37
2018-03-22T02:44:17.466Z,1014.40
2018-03-22T02:45:17.883Z,1014.31
2018-03-22T02:46:18.304Z,1014.31
2018-03-22T02:47:18.736Z,1014.29
2018-03-22T02:48:19.146Z,1014.27
2018-03-22T02:49:19.566Z,1014.23
2018-03-22T02:50:19.987Z,1014.25
2018-03-22T02:51:20.409Z,1014.24
2018-03-22T02:52:20.832Z,1014.25
2018-03-22T02:53:21.252Z,1014.20
2018-03-22T02:54:21.668Z,1014.19
2018-03-22T02:55:22.083Z,1014.11
2018-03-22T02:56:22.516Z,1014.16
2018-03-22T02:57:22.928Z,1014.12
2018-03-22T02:58:23.355Z,1014.09
2018-03-22T02:59:23.783Z,1014.10
2018-03-22T03:00:24.193Z,1014.06
2018-03-22T03:01:24.617Z,1014.06
2018-03-22T03:02:25.037Z,1014.02
2018-03-22T03:03:25.449Z,1014.00
2018-03-22T03:04:25.871Z,1013.96
2018-03-22T03:05:26.296Z,1013.94
2018-03-22T03:06:26.724Z,1013.92
2018-03-22T03:07:27.139Z,1013.96
2018-03-22T03:08:27.564Z,1013.89
2018-03-22T03:09:27.978Z,1013.93
2018-03-22T03:10:28.395Z,1013.87
2018-03-22T03:11:28.822Z,1013.88
2018-03-22T03:12:29.259Z,1013.84
2018-03-22T03:13:29.661Z,1013.89
2018-03-22T03:14:30.079Z,1013.84
2018-03-22T03:15:30.499Z,1013.79
2018-03-22T03:16:30.921Z,1013.78
2018-03-22T03:17:31.353Z,1013.78
2018-03-22T03:18:31.764Z,1013.72
2018-03-22T03:19:32.185Z,1013.69
2018-03-22T03:20:32.617Z,1013.69
2018-03-22T03:21:33.028Z,1013.67
2018-03-22T03:22:33.454Z,1013.66
2018-03-22T03:23:33.868Z,1013.64
2018-03-22T03:24:34.293Z,1013.58
2018-03-22T03:25:34.701Z,1013.57
2018-03-22T03:26:35.126Z,1013.53
2018-03-22T03:27:35.554Z,1013.52
2018-03-22T03:28:35.978Z,1013.48
2018-03-22T03:29:36.385Z,1013.52
2018-03-22T03:30:36.816Z,1013.47
2018-03-22T03:31:37.233Z,1013.48
2018-03-22T03:32:37.654Z,1013.47
2018-03-22T03:33:38.102Z,1013.34
2018-03-22T03:34:38.500Z,1013.31
2018-03-22T03:35:38.913Z,1013.27
2018-03-22T03:36:39.333Z,1013.33
2018-03-22T03:37:39.750Z,1013.28
2018-03-22T03:38:40.195Z,1013.27
2018-03-22T03:39:40.609Z,1013.24
2018-03-22T03:40:41.021Z,1013.24
2018-03-22T03:41:41.439Z,1013.19
2018-03-22T03:42:41.859Z,1013.21
2018-03-22T03:43:42.276Z,1013.14
2018-03-22T03:44:42.718Z,1013.11
2018-03-22T03:45:43.128Z,1013.07
2018-03-22T03:46:43.547Z,1013.08
2018-03-22T03:47:43.959Z,1013.06
2018-03-22T03:48:44.385Z,1013.07
2018-03-22T03:49:44.800Z,1013.05
2018-03-22T03:50:45.220Z,1013.02
2018-03-22T03:51:45.641Z,1012.96
2018-03-22T03:52:46.063Z,1012.91
2018-03-22T03:53:46.488Z,1012.91
2018-03-22T03:54:46.905Z,1012.91
2018-03-22T03:55:47.324Z,1012.82
2018-03-22T03:56:47.764Z,1012.85
2018-03-22T03:57:48.165Z,1012.83
2018-03-22T03:58:48.586Z,1012.79
2018-03-22T03:59:49.010Z,1012.76
2018-03-22T04:00:49.430Z,1012.76
2018-03-22T04:01:49.848Z,1012.70
2018-03-22T04:02:50.269Z,1012.73
2018-03-22T04:03:50.689Z,1012.81
2018-03-22T04:04:51.112Z,1012.80
2018-03-22T04:05:51.542Z,1012.75
2018-03-22T04:06:51.952Z,1012.75
2018-03-22T04:07:52.404Z,1012.79
2018-03-22T04:08:52.801Z,1012.75
2018-03-22T04:09:53.217Z,1012.78
2018-03-22T04:10:53.640Z,1012.75
2018-03-22T04:11:54.058Z,1012.68
2018-03-22T04:12:54.503Z,1012.59
2018-03-22T04:13:54.897Z,1012.60
2018-03-22T04:14:55.316Z,1012.47
2018-03-22T04:15:55.741Z,1012.49
2018-03-22T04:16:56.163Z,1012.40
2018-03-22T04:17:56.587Z,1012.37
2018-03-22T04:18:57.021Z,1012.32
2018-03-22T04:19:57.422Z,1012.29
2018-03-22T04:20:57.847Z,1012.29
2018-03-22T04:21:58.266Z,1012.31
2018-03-22T04:22:58.689Z,1012.26
2018-03-22T04:23:59.104Z,1012.25
2018-03-22T04:24:59.525Z,1012.27
2018-03-22T04:25:59.946Z,1012.27
2018-03-22T04:27:00.367Z,1012.29
2018-03-22T04:28:00.786Z,1012.24
2018-03-22T04:29:01.207Z,1012.24
2018-03-22T04:30:01.629Z,1012.22
2018-03-22T04:31:02.053Z,1012.22
2018-03-22T04:32:02.471Z,1012.13
2018-03-22T04:33:02.890Z,1012.18
2018-03-22T04:34:03.312Z,1012.16
2018-03-22T04:35:03.734Z,1012.16
2018-03-22T04:36:04.160Z,1012.15
2018-03-22T04:37:04.694Z,1012.12
2018-03-22T04:38:05.004Z,1012.14
2018-03-22T04:39:05.414Z,1012.10
2018-03-22T04:40:05.839Z,1012.07
2018-03-22T04:41:06.256Z,1012.03
2018-03-22T04:42:06.674Z,1012.03
2018-03-22T04:43:07.099Z,1012.02
2018-03-22T04:44:07.524Z,1011.99
2018-03-22T04:45:07.933Z,1012.01
2018-03-22T04:46:08.371Z,1012.08
2018-03-22T04:47:08.783Z,1011.98
2018-03-22T04:48:09.202Z,1011.99
2018-03-22T04:49:09.622Z,1011.98
2018-03-22T04:50:10.050Z,1011.95
2018-03-22T04:51:10.468Z,1011.96
2018-03-22T04:52:10.893Z,1011.97
2018-03-22T04:53:11.311Z,1011.95
2018-03-22T04:54:11.726Z,1011.91
2018-03-22T04:55:12.149Z,1011.92
2018-03-22T04:56:12.565Z,1011.92
2018-03-22T04:57:12.987Z,1011.86
2018-03-22T04:58:13.409Z,1011.86
2018-03-22T04:59:13.881Z,1011.85
2018-03-22T05:00:14.249Z,1011.84
2018-03-22T05:01:14.680Z,1011.84
2018-03-22T05:02:15.099Z,1011.84
2018-03-22T05:03:15.509Z,1011.82
2018-03-22T05:04:15.931Z,1011.88
2018-03-22T05:05:16.354Z,1011.81
2018-03-22T05:06:16.774Z,1011.83
2018-03-22T05:07:17.193Z,1011.80
2018-03-22T05:08:17.614Z,1011.77
2018-03-22T05:09:18.030Z,1011.80
2018-03-22T05:10:18.458Z,1011.82
2018-03-22T05:11:18.875Z,1011.71
2018-03-22T05:12:19.295Z,1011.73
2018-03-22T05:13:19.717Z,1011.71
2018-03-22T05:14:20.158Z,1011.70
2018-03-22T05:15:20.559Z,1011.69
2018-03-22T05:16:20.977Z,1011.63
2018-03-22T05:17:21.417Z,1011.65
2018-03-22T05:18:21.821Z,1011.69
2018-03-22T05:19:22.243Z,1011.63
2018-03-22T05:20:22.657Z,1011.68
2018-03-22T05:21:23.080Z,1011.63
2018-03-22T05:22:23.498Z,1011.61
2018-03-22T05:23:23.927Z,1011.62
2018-03-22T05:24:24.350Z,1011.55
2018-03-22T05:25:24.760Z,1011.57
2018-03-22T05:26:25.190Z,1011.52
2018-03-22T05:27:25.606Z,1011.47
2018-03-22T05:28:26.028Z,1011.50
2018-03-22T05:29:26.453Z,1011.47
2018-03-22T05:30:26.862Z,1011.48
2018-03-22T05:31:27.289Z,1011.45
2018-03-22T05:32:27.703Z,1011.50
2018-03-22T05:33:28.158Z,1011.46
2018-03-22T05:34:28.555Z,1011.47
2018-03-22T05:35:28.971Z,1011.45
2018-03-22T05:36:29.388Z,1011.40
2018-03-22T05:37:29.808Z,1011.43
2018-03-22T05:38:30.259Z,1011.45
2018-03-22T05:39:30.678Z,1011.43
2018-03-22T05:40:31.080Z,1011.44
2018-03-22T05:41:31.504Z,1011.40
2018-03-22T05:42:31.915Z,1011.41
2018-03-22T05:43:32.431Z,1011.38
2018-03-22T05:44:32.752Z,1011.43
2018-03-22T05:45:33.177Z,1011.44
2018-03-22T05:46:33.591Z,1011.47
2018-03-22T05:47:34.022Z,1011.40
2018-03-22T05:48:34.435Z,1011.42
2018-03-22T05:49:34.856Z,1011.41
2018-03-22T05:50:35.276Z,1011.34
2018-03-22T05:51:35.707Z,1011.34
2018-03-22T05:52:36.117Z,1011.34
2018-03-22T05:53:36.537Z,1011.37
2018-03-22T05:54:36.959Z,1011.36
2018-03-22T05:55:37.388Z,1011.40
2018-03-22T05:56:37.801Z,1011.37
2018-03-22T05:57:38.219Z,1011.34
2018-03-22T05:58:38.640Z,1011.34
2018-03-22T05:59:39.067Z,1011.35
2018-03-22T06:00:39.486Z,1011.35
2018-03-22T06:01:39.903Z,1011.38
2018-03-22T06:02:40.318Z,1011.37
2018-03-22T06:03:40.748Z,1011.38
2018-03-22T06:04:41.169Z,1011.33
2018-03-22T06:05:41.586Z,1011.33
2018-03-22T06:06:42.020Z,1011.34
2018-03-22T06:07:42.433Z,1011.31
2018-03-22T06:08:42.850Z,1011.31
2018-03-22T06:09:43.270Z,1011.29
2018-03-22T06:10:43.690Z,1011.21
2018-03-22T06:11:44.112Z,1011.14
2018-03-22T06:12:44.529Z,1011.09
2018-03-22T06:13:44.970Z,1011.09
2018-03-22T06:14:45.378Z,1011.06
2018-03-22T06:15:45.801Z,1010.98
2018-03-22T06:16:46.218Z,1010.95
2018-03-22T06:17:46.632Z,1010.98
2018-03-22T06:18:47.079Z,1010.90
2018-03-22T06:19:47.481Z,1010.87
2018-03-22T06:20:47.893Z,1010.87
2018-03-22T06:21:48.317Z,1010.83
2018-03-22T06:22:48.738Z,1010.75
2018-03-22T06:23:49.156Z,1010.78
2018-03-22T06:24:49.584Z,1010.72
2018-03-22T06:25:49.995Z,1010.61
2018-03-22T06:26:50.422Z,1010.65
2018-03-22T06:27:50.840Z,1010.62
2018-03-22T06:28:51.265Z,1010.63
2018-03-22T06:29:51.690Z,1010.57
2018-03-22T06:30:52.099Z,1010.53
2018-03-22T06:31:52.529Z,1010.51
2018-03-22T06:32:52.964Z,1010.50
2018-03-22T06:33:53.362Z,1010.44
2018-03-22T06:34:53.810Z,1010.44
2018-03-22T06:35:54.203Z,1010.40
2018-03-22T06:36:54.627Z,1010.38
2018-03-22T06:37:55.135Z,1010.31
2018-03-22T06:38:55.470Z,1010.29
2018-03-22T06:39:55.883Z,1010.27
2018-03-22T06:40:56.305Z,1010.25
2018-03-22T06:41:56.725Z,1010.24
2018-03-22T06:42:57.151Z,1010.27
2018-03-22T06:43:57.573Z,1010.22
2018-03-22T06:44:57.990Z,1010.18
2018-03-22T06:45:58.418Z,1010.24
2018-03-22T06:46:58.825Z,1010.16
2018-03-22T06:47:59.265Z,1010.14
2018-03-22T06:48:59.673Z,1010.15
2018-03-22T06:50:00.101Z,1010.18
2018-03-22T06:51:00.512Z,1010.19
2018-03-22T06:52:00.943Z,1010.13
2018-03-22T06:53:01.373Z,1010.07
2018-03-22T06:54:01.782Z,1010.08
2018-03-22T06:55:02.199Z,1010.15
2018-03-22T06:56:02.620Z,1010.13
2018-03-22T06:57:03.095Z,1010.08
2018-03-22T06:58:03.466Z,1010.03
2018-03-22T06:59:03.881Z,1010.07
2018-03-22T07:00:04.305Z,1010.03
2018-03-22T07:01:04.724Z,1009.99
2018-03-22T07:02:05.150Z,1010.05
2018-03-22T07:03:05.572Z,1010.00
2018-03-22T07:04:05.992Z,1010.00
2018-03-22T07:05:06.411Z,1010.11
2018-03-22T07:06:06.830Z,1010.02
2018-03-22T07:07:07.248Z,1010.00
2018-03-22T07:08:07.675Z,1009.97
2018-03-22T07:09:08.093Z,1009.99
2018-03-22T07:10:08.515Z,1009.97
2018-03-22T07:11:08.937Z,1010.08
2018-03-22T07:12:09.368Z,1009.95
2018-03-22T07:13:09.774Z,1009.98
2018-03-22T07:14:10.202Z,1009.94
2018-03-22T07:15:10.626Z,1009.91
2018-03-22T07:16:11.047Z,1009.90
2018-03-22T07:17:11.467Z,1009.88
2018-03-22T07:18:11.880Z,1009.86
2018-03-22T07:19:12.300Z,1009.90
2018-03-22T07:20:12.720Z,1009.84
2018-03-22T07:21:13.138Z,1009.85
2018-03-22T07:22:13.559Z,1009.82
2018-03-22T07:23:13.996Z,1009.83
2018-03-22T07:24:14.407Z,1009.79
2018-03-22T07:25:14.829Z,1009.83
2018-03-22T07:26:15.312Z,1009.82
2018-03-22T07:27:15.660Z,1009.78
2018-03-22T07:28:16.076Z,1009.74
2018-03-22T07:29:16.504Z,1009.72
2018-03-22T07:30:16.918Z,1009.75
2018-03-22T07:31:17.339Z,1009.78
2018-03-22T07:32:17.757Z,1009.64
2018-03-22T07:33:18.185Z,1009.63
2018-03-22T07:34:18.611Z,1009.65
2018-03-22T07:35:19.022Z,1009.60
2018-03-22T07:36:19.436Z,1009.51
2018-03-22T07:37:19.913Z,1009.58
2018-03-22T07:38:20.280Z,1009.58
2018-03-22T07:39:20.713Z,1009.52
2018-03-22T07:40:21.131Z,1009.49
2018-03-22T07:41:21.548Z,1009.46
2018-03-22T07:42:21.957Z,1009.43
2018-03-22T07:43:22.380Z,1009.42
2018-03-22T07:44:22.798Z,1009.39
2018-03-22T07:45:23.257Z,1009.40
2018-03-22T07:46:23.639Z,1009.35
2018-03-22T07:47:24.056Z,1009.28
2018-03-22T07:48:24.473Z,1009.27
2018-03-22T07:49:24.912Z,1009.27
2018-03-22T07:50:25.308Z,1009.29
2018-03-22T07:51:25.751Z,1009.22
2018-03-22T07:52:26.145Z,1009.13
2018-03-22T07:53:26.579Z,1009.16
2018-03-22T07:54:27.022Z,1009.13
2018-03-22T07:55:27.417Z,1009.12
2018-03-22T07:56:27.831Z,1009.10
2018-03-22T07:57:28.262Z,1009.07
2018-03-22T07:58:28.675Z,1009.00
2018-03-22T07:59:29.096Z,1009.02
2018-03-22T08:00:29.509Z,1009.03
2018-03-22T08:01:29.930Z,1009.05
2018-03-22T08:02:30.349Z,1009.01
2018-03-22T08:03:30.779Z,1009.00
2018-03-22T08:04:31.188Z,1008.97
2018-03-22T08:05:31.606Z,1008.94
2018-03-22T08:06:32.034Z,1008.96
2018-03-22T08:07:32.451Z,1008.98
2018-03-22T08:08:32.893Z,1008.97
2018-03-22T08:09:33.334Z,1008.93
2018-03-22T08:10:33.718Z,1008.89
2018-03-22T08:11:34.138Z,1008.91
2018-03-22T08:12:34.550Z,1008.93
2018-03-22T08:13:34.964Z,1008.90
2018-03-22T08:14:35.386Z,1008.93
2018-03-22T08:15:35.804Z,1008.88
2018-03-22T08:16:36.238Z,1008.89
2018-03-22T08:17:36.653Z,1008.86
2018-03-22T08:18:37.083Z,1008.74
2018-03-22T08:19:37.483Z,1008.78
2018-03-22T08:20:37.925Z,1008.81
2018-03-22T08:21:38.326Z,1008.76
2018-03-22T08:22:38.749Z,1008.79
2018-03-22T08:23:39.214Z,1008.78
2018-03-22T08:24:39.582Z,1008.76
2018-03-22T08:25:40.002Z,1008.67
2018-03-22T08:26:40.424Z,1008.72
2018-03-22T08:27:40.859Z,1008.69
2018-03-22T08:28:41.272Z,1008.69
2018-03-22T08:29:41.689Z,1008.66
2018-03-22T08:30:42.104Z,1008.65
2018-03-22T08:31:42.534Z,1008.64
2018-03-22T08:32:42.939Z,1008.67
2018-03-22T08:33:43.364Z,1008.63
2018-03-22T08:34:43.790Z,1008.60
2018-03-22T08:35:44.209Z,1008.61
2018-03-22T08:36:44.623Z,1008.60
2018-03-22T08:37:45.041Z,1008.63
2018-03-22T08:38:45.461Z,1008.57
2018-03-22T08:39:45.883Z,1008.57
2018-03-22T08:40:46.311Z,1008.57
2018-03-22T08:41:46.729Z,1008.48
2018-03-22T08:42:47.137Z,1008.57
2018-03-22T08:43:47.560Z,1008.54
2018-03-22T08:44:47.978Z,1008.55
2018-03-22T08:45:48.413Z,1008.60
2018-03-22T08:46:48.824Z,1008.53
2018-03-22T08:47:49.248Z,1008.56
2018-03-22T08:48:49.660Z,1008.55
2018-03-22T08:49:50.082Z,1008.59
2018-03-22T08:50:50.501Z,1008.55
2018-03-22T08:51:50.929Z,1008.50
2018-03-22T08:52:51.345Z,1008.49
2018-03-22T08:53:51.761Z,1008.50
2018-03-22T08:54:52.176Z,1008.43
2018-03-22T08:55:52.632Z,1008.47
2018-03-22T08:56:53.026Z,1008.51
2018-03-22T08:57:53.440Z,1008.53
2018-03-22T08:58:53.861Z,1008.50
2018-03-22T08:59:54.291Z,1008.44
2018-03-22T09:00:54.700Z,1008.48
2018-03-22T09:01:55.116Z,1008.42
2018-03-22T09:02:55.545Z,1008.53
2018-03-22T09:03:55.978Z,1008.44
2018-03-22T09:04:56.377Z,1008.40
2018-03-22T09:05:56.801Z,1008.41
2018-03-22T09:06:57.215Z,1008.35
2018-03-22T09:07:57.638Z,1008.40
2018-03-22T09:08:58.062Z,1008.31
2018-03-22T09:09:58.483Z,1008.31
2018-03-22T09:10:58.896Z,1008.28
2018-03-22T09:11:59.355Z,1008.29
2018-03-22T09:12:59.746Z,1008.28
2018-03-22T09:14:00.160Z,1008.22
2018-03-22T09:15:00.578Z,1008.23
2018-03-22T09:16:00.996Z,1008.22
2018-03-22T09:17:01.418Z,1008.20
2018-03-22T09:18:01.836Z,1008.21
2018-03-22T09:19:02.291Z,1008.19
2018-03-22T09:20:02.678Z,1008.18
2018-03-22T09:21:03.097Z,1008.19
2018-03-22T09:22:03.518Z,1008.15
2018-03-22T09:23:03.938Z,1008.20
2018-03-22T09:24:04.351Z,1008.14
2018-03-22T09:25:04.775Z,1008.12
2018-03-22T09:26:05.196Z,1008.09
2018-03-22T09:27:05.616Z,1008.09
2018-03-22T09:28:06.033Z,1008.16
2018-03-22T09:29:06.458Z,1008.06
2018-03-22T09:30:06.878Z,1008.07
2018-03-22T09:31:07.303Z,1008.08
2018-03-22T09:32:07.715Z,1008.02
2018-03-22T09:33:08.165Z,1008.07
2018-03-22T09:34:08.578Z,1008.05
2018-03-22T09:35:08.981Z,1008.00
2018-03-22T09:36:09.399Z,1008.00
2018-03-22T09:37:09.813Z,1008.02
2018-03-22T09:38:10.236Z,1008.03
2018-03-22T09:39:10.658Z,1007.94
2018-03-22T09:41:44.213Z,1007.97
2018-03-22T09:42:44.628Z,1007.91
2018-03-22T09:44:39.205Z,1007.89
2018-03-22T09:45:39.623Z,1007.81
2018-03-22T09:47:34.272Z,1007.83
2018-03-22T09:48:34.648Z,1007.92
2018-03-22T09:50:29.225Z,1007.83
2018-03-22T09:51:29.643Z,1007.86
2018-03-22T09:53:24.201Z,1007.91
2018-03-22T09:54:24.610Z,1007.81
2018-03-22T09:56:19.219Z,1007.82
2018-03-22T09:57:19.634Z,1007.79
2018-03-22T09:59:14.309Z,1007.79
2018-03-22T10:00:14.667Z,1007.81
2018-03-22T10:02:09.293Z,1007.79
2018-03-22T10:03:09.697Z,1007.75
2018-03-22T10:05:04.213Z,1007.76
2018-03-22T10:06:04.611Z,1007.72
2018-03-22T10:07:05.040Z,1007.75
2018-03-22T10:08:05.499Z,1007.71
2018-03-22T10:09:05.886Z,1007.74
2018-03-22T10:10:06.282Z,1007.76
2018-03-22T10:11:06.705Z,1007.68
2018-03-22T10:12:07.117Z,1007.70
2018-03-22T10:13:07.544Z,1007.69
2018-03-22T10:14:07.980Z,1007.72
2018-03-22T10:15:08.403Z,1007.73
2018-03-22T10:16:08.828Z,1007.73
2018-03-22T10:17:09.244Z,1007.68
2018-03-22T10:18:09.647Z,1007.65
2018-03-22T10:19:10.102Z,1007.64
2018-03-22T10:20:10.505Z,1007.62
2018-03-22T10:21:10.930Z,1007.65
2018-03-22T10:22:11.349Z,1007.60
2018-03-22T10:23:11.772Z,1007.65
2018-03-22T10:24:12.161Z,1007.59
2018-03-22T10:25:12.588Z,1007.60
2018-03-22T10:26:13.009Z,1007.59
2018-03-22T10:27:13.475Z,1007.61
2018-03-22T10:28:13.876Z,1007.56
2018-03-22T10:29:14.295Z,1007.62
2018-03-22T10:30:14.713Z,1007.52
2018-03-22T10:31:15.130Z,1007.56
2018-03-22T10:32:15.533Z,1007.57
2018-03-22T10:33:15.961Z,1007.51
2018-03-22T10:34:16.387Z,1007.50
2018-03-22T10:35:16.833Z,1007.43
2018-03-22T10:36:17.248Z,1007.45
2018-03-22T10:37:17.634Z,1007.42
2018-03-22T10:38:18.042Z,1007.41
2018-03-22T10:39:18.466Z,1007.50
2018-03-22T10:40:18.897Z,1007.46
2018-03-22T10:41:19.306Z,1007.41
2018-03-22T10:42:19.778Z,1007.40
2018-03-22T10:43:20.160Z,1007.36
2018-03-22T10:44:20.571Z,1007.38
2018-03-22T10:45:20.999Z,1007.35
2018-03-22T10:46:21.406Z,1007.35
2018-03-22T10:47:21.858Z,1007.35
2018-03-22T10:48:22.276Z,1007.39
2018-03-22T10:49:22.702Z,1007.33
2018-03-22T10:50:23.133Z,1007.36
2018-03-22T10:51:23.509Z,1007.32
2018-03-22T10:52:23.970Z,1007.29
2018-03-22T10:53:24.361Z,1007.33
2018-03-22T10:54:24.791Z,1007.34
2018-03-22T10:55:25.227Z,1007.29
2018-03-22T10:56:25.609Z,1007.28
2018-03-22T10:57:26.029Z,1007.29
2018-03-22T10:58:26.449Z,1007.23
2018-03-22T10:59:26.871Z,1007.27
2018-03-22T11:00:27.322Z,1007.25
2018-03-22T11:01:27.714Z,1007.21
2018-03-22T11:02:28.145Z,1007.24
2018-03-22T11:03:28.578Z,1007.27
2018-03-22T11:04:28.982Z,1007.25
2018-03-22T11:05:29.402Z,1007.24
2018-03-22T11:06:29.837Z,1007.27
2018-03-22T11:07:30.238Z,1007.26
2018-03-22T11:08:30.652Z,1007.23
2018-03-22T11:09:31.076Z,1007.22
2018-03-22T11:10:31.498Z,1007.23
2018-03-22T11:11:31.913Z,1007.27
2018-03-22T11:12:32.343Z,1007.20
2018-03-22T11:13:32.772Z,1007.17
2018-03-22T11:14:33.193Z,1007.16
2018-03-22T11:15:33.607Z,1007.15
2018-03-22T11:16:34.043Z,1007.15
2018-03-22T11:17:34.461Z,1007.16
2018-03-22T11:18:34.904Z,1007.14
2018-03-22T11:19:35.292Z,1007.13
2018-03-22T11:20:35.719Z,1007.11
2018-03-22T11:21:36.122Z,1007.09
2018-03-22T11:22:36.540Z,1007.08
2018-03-22T11:23:37.015Z,1007.07
2018-03-22T11:24:37.401Z,1007.04
2018-03-22T11:25:37.847Z,1007.02
2018-03-22T11:26:38.243Z,1007.02
2018-03-22T11:27:38.681Z,1006.98
2018-03-22T11:28:39.111Z,1006.95
2018-03-22T11:29:39.499Z,1007.02
2018-03-22T11:30:39.921Z,1007.01
2018-03-22T11:31:40.343Z,1006.97
2018-03-22T11:32:40.762Z,1006.98
2018-03-22T11:33:41.209Z,1006.98
2018-03-22T11:34:41.586Z,1006.95
2018-03-22T11:35:42.026Z,1006.94
2018-03-22T11:36:42.428Z,1006.91
2018-03-22T11:37:42.845Z,1006.93
2018-03-22T11:38:43.271Z,1006.89
2018-03-22T11:39:43.690Z,1006.89
2018-03-22T11:40:44.135Z,1006.87
2018-03-22T11:41:44.544Z,1006.85
2018-03-22T11:42:44.966Z,1006.89
2018-03-22T11:43:45.371Z,1006.85
2018-03-22T11:44:45.800Z,1006.88
2018-03-22T11:45:46.253Z,1006.82
2018-03-22T11:46:46.634Z,1006.86
2018-03-22T11:47:47.084Z,1006.81
2018-03-22T11:48:47.494Z,1006.83
2018-03-22T11:49:47.893Z,1006.78
2018-03-22T11:50:48.376Z,1006.80
2018-03-22T11:51:48.739Z,1006.84
2018-03-22T11:52:49.166Z,1006.83
2018-03-22T11:53:49.587Z,1006.82
2018-03-22T11:54:50.002Z,1006.77
2018-03-22T11:55:50.428Z,1006.79
2018-03-22T11:56:50.860Z,1006.78
2018-03-22T11:57:51.275Z,1006.77
2018-03-22T11:58:51.685Z,1006.78
2018-03-22T11:59:52.103Z,1006.77
2018-03-22T12:00:52.545Z,1006.78
2018-03-22T12:01:52.974Z,1006.74
2018-03-22T12:02:53.398Z,1006.75
2018-03-22T12:03:53.815Z,1006.72
2018-03-22T12:04:54.210Z,1006.67
2018-03-22T12:05:54.663Z,1006.72
2018-03-22T12:06:55.050Z,1006.65
2018-03-22T12:07:55.482Z,1006.65
2018-03-22T12:08:55.885Z,1006.66
2018-03-22T12:09:56.318Z,1006.64
2018-03-22T12:10:56.741Z,1006.66
2018-03-22T12:11:57.150Z,1006.67
2018-03-22T12:12:57.608Z,1006.61
2018-03-22T12:13:57.997Z,1006.61
2018-03-22T12:14:58.447Z,1006.58
2018-03-22T12:15:58.834Z,1006.55
2018-03-22T12:16:59.260Z,1006.55
2018-03-22T12:17:59.684Z,1006.56
2018-03-22T12:19:00.112Z,1006.51